sensor_id;sensor_type;location;lat;lon;timestamp;P1;durP1;ratioP1;P2;durP2;ratioP2
14326;SDS011;7247;53.330;-1.180;2022-12-18T00:01:16;30.37;;;16.03;;
14326;SDS011;7247;53.330;-1.180;2022-12-18T00:03:43;31.67;;;16.60;;
14326;SDS011;7247;53.330;-1.180;2022-12-18T00:06:10;33.47;;;15.80;;
14326;SDS011;7247;53.330;-1.180;2022-12-18T00:08:38;27.87;;;15.03;;
14326;SDS011;7247;53.330;-1.180;2022-12-18T00:11:04;26.63;;;14.97;;
14326;SDS011;7247;53.330;-1.180;2022-12-18T00:13:31;24.80;;;14.60;;
14326;SDS011;7247;53.330;-1.180;2022-12-18T00:16:00;28.93;;;14.27;;
14326;SDS011;7247;53.330;-1.180;2022-12-18T00:18:27;32.90;;;16.07;;
14326;SDS011;7247;53.330;-1.180;2022-12-18T00:20:53;28.00;;;14.87;;
14326;SDS011;7247;53.330;-1.180;2022-12-18T00:23:20;25.67;;;15.30;;
14326;SDS011;7247;53.330;-1.180;2022-12-18T00:25:47;27.17;;;15.60;;
14326;SDS011;7247;53.330;-1.180;2022-12-18T00:28:14;29.13;;;15.80;;
14326;SDS011;7247;53.330;-1.180;2022-12-18T00:30:40;26.13;;;15.97;;
14326;SDS011;7247;53.330;-1.180;2022-12-18T00:33:07;27.10;;;16.07;;
14326;SDS011;7247;53.330;-1.180;2022-12-18T00:35:33;30.53;;;15.37;;
14326;SDS011;7247;53.330;-1.180;2022-12-18T00:37:59;22.90;;;14.77;;
14326;SDS011;7247;53.330;-1.180;2022-12-18T00:40:26;29.90;;;15.93;;
14326;SDS011;7247;53.330;-1.180;2022-12-18T00:42:54;25.03;;;16.07;;
14326;SDS011;7247;53.330;-1.180;2022-12-18T00:45:22;22.97;;;15.53;;
14326;SDS011;7247;53.330;-1.180;2022-12-18T00:47:49;31.53;;;15.70;;
14326;SDS011;7247;53.330;-1.180;2022-12-18T00:50:15;32.30;;;16.30;;
14326;SDS011;7247;53.330;-1.180;2022-12-18T00:52:42;32.00;;;16.37;;
14326;SDS011;7247;53.330;-1.180;2022-12-18T00:55:08;29.30;;;16.33;;
14326;SDS011;7247;53.330;-1.180;2022-12-18T00:57:35;37.67;;;17.90;;
14326;SDS011;7247;53.330;-1.180;2022-12-18T01:00:03;32.37;;;18.10;;
14326;SDS011;7247;53.330;-1.180;2022-12-18T01:02:30;29.27;;;17.60;;
14326;SDS011;7247;53.330;-1.180;2022-12-18T01:04:56;82.57;;;19.20;;
14326;SDS011;7247;53.330;-1.180;2022-12-18T01:07:22;32.73;;;18.13;;
14326;SDS011;7247;53.330;-1.180;2022-12-18T01:09:49;40.00;;;18.20;;
14326;SDS011;7247;53.330;-1.180;2022-12-18T01:12:15;34.37;;;18.93;;
14326;SDS011;7247;53.330;-1.180;2022-12-18T01:14:42;28.83;;;18.30;;
14326;SDS011;7247;53.330;-1.180;2022-12-18T01:17:10;33.60;;;19.23;;
14326;SDS011;7247;53.330;-1.180;2022-12-18T01:19:36;31.80;;;19.40;;
14326;SDS011;7247;53.330;-1.180;2022-12-18T01:22:02;39.97;;;18.77;;
14326;SDS011;7247;53.330;-1.180;2022-12-18T01:24:29;33.27;;;19.73;;
14326;SDS011;7247;53.330;-1.180;2022-12-18T01:26:55;32.90;;;19.50;;
14326;SDS011;7247;53.330;-1.180;2022-12-18T01:29:22;33.60;;;19.70;;
14326;SDS011;7247;53.330;-1.180;2022-12-18T01:31:48;36.60;;;20.83;;
14326;SDS011;7247;53.330;-1.180;2022-12-18T01:34:16;38.57;;;21.47;;
14326;SDS011;7247;53.330;-1.180;2022-12-18T01:36:43;31.70;;;18.53;;
14326;SDS011;7247;53.330;-1.180;2022-12-18T01:39:10;31.23;;;18.90;;
14326;SDS011;7247;53.330;-1.180;2022-12-18T01:41:37;34.93;;;19.23;;
14326;SDS011;7247;53.330;-1.180;2022-12-18T01:47:18;30.47;;;19.03;;
14326;SDS011;7247;53.330;-1.180;2022-12-18T01:49:46;42.40;;;20.00;;
14326;SDS011;7247;53.330;-1.180;2022-12-18T01:52:12;33.03;;;19.50;;
14326;SDS011;7247;53.330;-1.180;2022-12-18T01:54:39;39.23;;;21.17;;
14326;SDS011;7247;53.330;-1.180;2022-12-18T01:57:05;40.37;;;20.27;;
14326;SDS011;7247;53.330;-1.180;2022-12-18T01:59:32;34.47;;;20.50;;
14326;SDS011;7247;53.330;-1.180;2022-12-18T02:01:59;50.67;;;22.57;;
14326;SDS011;7247;53.330;-1.180;2022-12-18T02:04:26;39.70;;;21.83;;
14326;SDS011;7247;53.330;-1.180;2022-12-18T02:06:56;38.33;;;20.60;;
14326;SDS011;7247;53.330;-1.180;2022-12-18T02:09:26;44.63;;;21.23;;
14326;SDS011;7247;53.330;-1.180;2022-12-18T02:11:56;37.50;;;21.10;;
14326;SDS011;7247;53.330;-1.180;2022-12-18T02:14:27;36.33;;;21.33;;
14326;SDS011;7247;53.330;-1.180;2022-12-18T02:16:56;33.90;;;20.83;;
14326;SDS011;7247;53.330;-1.180;2022-12-18T02:22:14;37.00;;;21.80;;
14326;SDS011;7247;53.330;-1.180;2022-12-18T02:24:51;33.43;;;19.53;;
14326;SDS011;7247;53.330;-1.180;2022-12-18T02:27:21;33.03;;;19.80;;
14326;SDS011;7247;53.330;-1.180;2022-12-18T02:29:49;33.67;;;19.90;;
14326;SDS011;7247;53.330;-1.180;2022-12-18T02:32:17;36.47;;;19.90;;
14326;SDS011;7247;53.330;-1.180;2022-12-18T02:34:46;34.57;;;20.37;;
14326;SDS011;7247;53.330;-1.180;2022-12-18T02:37:14;34.57;;;20.67;;
14326;SDS011;7247;53.330;-1.180;2022-12-18T02:39:42;32.27;;;20.43;;
14326;SDS011;7247;53.330;-1.180;2022-12-18T02:42:10;39.33;;;21.27;;
14326;SDS011;7247;53.330;-1.180;2022-12-18T02:44:43;32.93;;;20.37;;
14326;SDS011;7247;53.330;-1.180;2022-12-18T02:47:10;32.37;;;21.10;;
14326;SDS011;7247;53.330;-1.180;2022-12-18T02:49:40;33.13;;;20.67;;
14326;SDS011;7247;53.330;-1.180;2022-12-18T02:52:11;34.13;;;20.30;;
14326;SDS011;7247;53.330;-1.180;2022-12-18T02:54:44;34.10;;;20.80;;
14326;SDS011;7247;53.330;-1.180;2022-12-18T02:57:14;37.03;;;21.93;;
14326;SDS011;7247;53.330;-1.180;2022-12-18T02:59:44;42.30;;;22.60;;
14326;SDS011;7247;53.330;-1.180;2022-12-18T03:02:16;37.43;;;22.23;;
14326;SDS011;7247;53.330;-1.180;2022-12-18T03:04:44;36.73;;;22.13;;
14326;SDS011;7247;53.330;-1.180;2022-12-18T03:07:15;37.40;;;21.87;;
14326;SDS011;7247;53.330;-1.180;2022-12-18T03:09:43;41.73;;;22.90;;
14326;SDS011;7247;53.330;-1.180;2022-12-18T03:12:13;37.13;;;21.90;;
14326;SDS011;7247;53.330;-1.180;2022-12-18T03:14:52;41.10;;;22.87;;
14326;SDS011;7247;53.330;-1.180;2022-12-18T03:17:20;47.30;;;23.83;;
14326;SDS011;7247;53.330;-1.180;2022-12-18T03:19:48;42.30;;;23.43;;
14326;SDS011;7247;53.330;-1.180;2022-12-18T03:22:15;42.30;;;24.27;;
14326;SDS011;7247;53.330;-1.180;2022-12-18T03:24:42;42.60;;;24.03;;
14326;SDS011;7247;53.330;-1.180;2022-12-18T03:27:11;43.93;;;23.67;;
14326;SDS011;7247;53.330;-1.180;2022-12-18T03:29:38;45.00;;;24.67;;
14326;SDS011;7247;53.330;-1.180;2022-12-18T03:32:10;43.03;;;23.67;;
14326;SDS011;7247;53.330;-1.180;2022-12-18T03:34:38;44.03;;;24.30;;
14326;SDS011;7247;53.330;-1.180;2022-12-18T03:37:06;42.10;;;24.60;;
14326;SDS011;7247;53.330;-1.180;2022-12-18T03:39:33;44.50;;;23.67;;
14326;SDS011;7247;53.330;-1.180;2022-12-18T03:42:01;47.67;;;25.70;;
14326;SDS011;7247;53.330;-1.180;2022-12-18T03:44:31;46.93;;;25.43;;
14326;SDS011;7247;53.330;-1.180;2022-12-18T03:47:03;45.60;;;25.73;;
14326;SDS011;7247;53.330;-1.180;2022-12-18T03:49:33;51.07;;;25.10;;
14326;SDS011;7247;53.330;-1.180;2022-12-18T03:52:02;50.10;;;24.67;;
14326;SDS011;7247;53.330;-1.180;2022-12-18T03:54:29;45.60;;;24.97;;
14326;SDS011;7247;53.330;-1.180;2022-12-18T03:56:57;44.40;;;24.63;;
14326;SDS011;7247;53.330;-1.180;2022-12-18T03:59:24;44.93;;;25.27;;
14326;SDS011;7247;53.330;-1.180;2022-12-18T04:01:52;46.80;;;25.23;;
14326;SDS011;7247;53.330;-1.180;2022-12-18T04:04:19;49.13;;;24.73;;
14326;SDS011;7247;53.330;-1.180;2022-12-18T04:06:47;44.93;;;24.07;;
14326;SDS011;7247;53.330;-1.180;2022-12-18T04:09:14;42.43;;;23.53;;
14326;SDS011;7247;53.330;-1.180;2022-12-18T04:11:41;47.40;;;24.50;;
14326;SDS011;7247;53.330;-1.180;2022-12-18T04:14:09;47.37;;;24.07;;
14326;SDS011;7247;53.330;-1.180;2022-12-18T04:16:35;57.47;;;25.00;;
14326;SDS011;7247;53.330;-1.180;2022-12-18T04:19:01;44.97;;;24.43;;
14326;SDS011;7247;53.330;-1.180;2022-12-18T04:21:28;50.37;;;23.20;;
14326;SDS011;7247;53.330;-1.180;2022-12-18T04:23:56;48.77;;;24.23;;
14326;SDS011;7247;53.330;-1.180;2022-12-18T04:26:22;46.03;;;24.47;;
14326;SDS011;7247;53.330;-1.180;2022-12-18T04:28:48;50.23;;;24.27;;
14326;SDS011;7247;53.330;-1.180;2022-12-18T04:31:15;47.40;;;23.90;;
14326;SDS011;7247;53.330;-1.180;2022-12-18T04:33:41;44.30;;;22.77;;
14326;SDS011;7247;53.330;-1.180;2022-12-18T04:36:08;46.13;;;24.10;;
14326;SDS011;7247;53.330;-1.180;2022-12-18T04:38:34;46.13;;;22.70;;
14326;SDS011;7247;53.330;-1.180;2022-12-18T04:41:02;47.40;;;24.17;;
14326;SDS011;7247;53.330;-1.180;2022-12-18T04:43:28;46.53;;;22.97;;
14326;SDS011;7247;53.330;-1.180;2022-12-18T04:46:00;43.43;;;21.77;;
14326;SDS011;7247;53.330;-1.180;2022-12-18T04:48:27;46.17;;;23.67;;
14326;SDS011;7247;53.330;-1.180;2022-12-18T04:50:53;45.80;;;22.73;;
14326;SDS011;7247;53.330;-1.180;2022-12-18T04:53:20;49.73;;;23.17;;
14326;SDS011;7247;53.330;-1.180;2022-12-18T04:55:46;88.07;;;27.23;;
14326;SDS011;7247;53.330;-1.180;2022-12-18T04:58:14;57.93;;;24.63;;
14326;SDS011;7247;53.330;-1.180;2022-12-18T05:00:41;58.90;;;26.03;;
14326;SDS011;7247;53.330;-1.180;2022-12-18T05:03:07;60.13;;;26.43;;
14326;SDS011;7247;53.330;-1.180;2022-12-18T05:05:34;62.63;;;27.57;;
14326;SDS011;7247;53.330;-1.180;2022-12-18T05:08:00;72.57;;;28.13;;
14326;SDS011;7247;53.330;-1.180;2022-12-18T05:10:27;62.60;;;27.40;;
14326;SDS011;7247;53.330;-1.180;2022-12-18T05:12:53;74.60;;;27.67;;
14326;SDS011;7247;53.330;-1.180;2022-12-18T05:15:28;64.60;;;27.80;;
14326;SDS011;7247;53.330;-1.180;2022-12-18T05:17:54;77.10;;;28.07;;
14326;SDS011;7247;53.330;-1.180;2022-12-18T05:20:21;69.43;;;27.70;;
14326;SDS011;7247;53.330;-1.180;2022-12-18T05:22:47;78.93;;;28.13;;
14326;SDS011;7247;53.330;-1.180;2022-12-18T05:25:13;69.07;;;28.43;;
14326;SDS011;7247;53.330;-1.180;2022-12-18T05:27:40;69.70;;;28.80;;
14326;SDS011;7247;53.330;-1.180;2022-12-18T05:30:07;76.63;;;29.47;;
14326;SDS011;7247;53.330;-1.180;2022-12-18T05:32:35;81.23;;;30.13;;
14326;SDS011;7247;53.330;-1.180;2022-12-18T05:35:01;74.33;;;30.30;;
14326;SDS011;7247;53.330;-1.180;2022-12-18T05:37:28;76.27;;;32.10;;
14326;SDS011;7247;53.330;-1.180;2022-12-18T05:39:54;86.77;;;33.07;;
14326;SDS011;7247;53.330;-1.180;2022-12-18T05:42:21;84.73;;;35.30;;
14326;SDS011;7247;53.330;-1.180;2022-12-18T05:44:47;91.93;;;36.50;;
14326;SDS011;7247;53.330;-1.180;2022-12-18T05:47:13;93.73;;;37.83;;
14326;SDS011;7247;53.330;-1.180;2022-12-18T05:49:41;91.47;;;38.30;;
14326;SDS011;7247;53.330;-1.180;2022-12-18T05:52:08;97.27;;;40.60;;
14326;SDS011;7247;53.330;-1.180;2022-12-18T05:54:34;91.20;;;39.47;;
14326;SDS011;7247;53.330;-1.180;2022-12-18T05:57:01;97.30;;;38.70;;
14326;SDS011;7247;53.330;-1.180;2022-12-18T05:59:27;97.00;;;40.43;;
14326;SDS011;7247;53.330;-1.180;2022-12-18T06:01:54;90.73;;;40.00;;
14326;SDS011;7247;53.330;-1.180;2022-12-18T06:04:20;101.80;;;40.97;;
14326;SDS011;7247;53.330;-1.180;2022-12-18T06:06:48;100.03;;;43.33;;
14326;SDS011;7247;53.330;-1.180;2022-12-18T06:09:14;108.10;;;43.37;;
14326;SDS011;7247;53.330;-1.180;2022-12-18T06:11:41;108.90;;;43.70;;
14326;SDS011;7247;53.330;-1.180;2022-12-18T06:14:08;110.23;;;44.40;;
14326;SDS011;7247;53.330;-1.180;2022-12-18T06:16:35;108.83;;;43.83;;
14326;SDS011;7247;53.330;-1.180;2022-12-18T06:19:03;106.50;;;42.77;;
14326;SDS011;7247;53.330;-1.180;2022-12-18T06:21:30;98.83;;;42.63;;
14326;SDS011;7247;53.330;-1.180;2022-12-18T06:23:57;107.90;;;41.80;;
14326;SDS011;7247;53.330;-1.180;2022-12-18T06:26:24;115.93;;;43.03;;
14326;SDS011;7247;53.330;-1.180;2022-12-18T06:28:50;98.83;;;40.27;;
14326;SDS011;7247;53.330;-1.180;2022-12-18T06:31:17;110.13;;;42.50;;
14326;SDS011;7247;53.330;-1.180;2022-12-18T06:33:43;104.80;;;41.37;;
14326;SDS011;7247;53.330;-1.180;2022-12-18T06:36:11;117.33;;;42.97;;
14326;SDS011;7247;53.330;-1.180;2022-12-18T06:38:39;110.13;;;42.37;;
14326;SDS011;7247;53.330;-1.180;2022-12-18T06:41:07;113.87;;;43.23;;
14326;SDS011;7247;53.330;-1.180;2022-12-18T06:43:34;122.87;;;42.53;;
14326;SDS011;7247;53.330;-1.180;2022-12-18T06:46:00;112.43;;;41.07;;
14326;SDS011;7247;53.330;-1.180;2022-12-18T06:48:27;110.63;;;40.93;;
14326;SDS011;7247;53.330;-1.180;2022-12-18T06:50:53;116.73;;;41.80;;
14326;SDS011;7247;53.330;-1.180;2022-12-18T06:53:20;119.60;;;40.63;;
14326;SDS011;7247;53.330;-1.180;2022-12-18T06:55:46;116.90;;;41.17;;
14326;SDS011;7247;53.330;-1.180;2022-12-18T06:58:14;129.33;;;44.07;;
14326;SDS011;7247;53.330;-1.180;2022-12-18T07:00:40;114.93;;;39.70;;
14326;SDS011;7247;53.330;-1.180;2022-12-18T07:03:07;112.63;;;40.33;;
14326;SDS011;7247;53.330;-1.180;2022-12-18T07:05:33;106.43;;;36.40;;
14326;SDS011;7247;53.330;-1.180;2022-12-18T07:08:00;109.43;;;38.13;;
14326;SDS011;7247;53.330;-1.180;2022-12-18T07:10:26;105.77;;;36.13;;
14326;SDS011;7247;53.330;-1.180;2022-12-18T07:12:53;101.97;;;37.60;;
14326;SDS011;7247;53.330;-1.180;2022-12-18T07:15:20;100.97;;;36.27;;
14326;SDS011;7247;53.330;-1.180;2022-12-18T07:17:47;108.00;;;35.77;;
14326;SDS011;7247;53.330;-1.180;2022-12-18T07:20:13;105.87;;;36.33;;
14326;SDS011;7247;53.330;-1.180;2022-12-18T07:22:39;110.80;;;36.93;;
14326;SDS011;7247;53.330;-1.180;2022-12-18T07:25:07;114.13;;;38.07;;
14326;SDS011;7247;53.330;-1.180;2022-12-18T07:27:33;106.47;;;37.10;;
14326;SDS011;7247;53.330;-1.180;2022-12-18T07:30:00;110.10;;;36.67;;
14326;SDS011;7247;53.330;-1.180;2022-12-18T07:32:27;112.93;;;37.70;;
14326;SDS011;7247;53.330;-1.180;2022-12-18T07:34:54;116.73;;;38.10;;
14326;SDS011;7247;53.330;-1.180;2022-12-18T07:37:20;118.20;;;37.63;;
14326;SDS011;7247;53.330;-1.180;2022-12-18T07:39:47;112.80;;;36.93;;
14326;SDS011;7247;53.330;-1.180;2022-12-18T07:42:13;119.03;;;38.97;;
14326;SDS011;7247;53.330;-1.180;2022-12-18T07:44:58;111.33;;;36.47;;
14326;SDS011;7247;53.330;-1.180;2022-12-18T07:47:24;105.87;;;36.03;;
14326;SDS011;7247;53.330;-1.180;2022-12-18T07:49:52;108.83;;;36.57;;
14326;SDS011;7247;53.330;-1.180;2022-12-18T07:52:18;106.87;;;36.40;;
14326;SDS011;7247;53.330;-1.180;2022-12-18T07:54:45;108.53;;;35.73;;
14326;SDS011;7247;53.330;-1.180;2022-12-18T07:57:13;103.70;;;35.40;;
14326;SDS011;7247;53.330;-1.180;2022-12-18T07:59:40;108.77;;;35.63;;
14326;SDS011;7247;53.330;-1.180;2022-12-18T08:02:07;104.43;;;35.37;;
14326;SDS011;7247;53.330;-1.180;2022-12-18T08:04:33;102.93;;;35.97;;
14326;SDS011;7247;53.330;-1.180;2022-12-18T08:07:01;106.73;;;35.93;;
14326;SDS011;7247;53.330;-1.180;2022-12-18T08:09:28;105.40;;;35.73;;
14326;SDS011;7247;53.330;-1.180;2022-12-18T08:11:54;88.27;;;34.60;;
14326;SDS011;7247;53.330;-1.180;2022-12-18T08:14:20;102.60;;;34.97;;
14326;SDS011;7247;53.330;-1.180;2022-12-18T08:16:47;109.87;;;35.20;;
14326;SDS011;7247;53.330;-1.180;2022-12-18T08:19:14;93.37;;;33.00;;
14326;SDS011;7247;53.330;-1.180;2022-12-18T08:21:40;95.60;;;33.37;;
14326;SDS011;7247;53.330;-1.180;2022-12-18T08:24:09;99.77;;;33.53;;
14326;SDS011;7247;53.330;-1.180;2022-12-18T08:26:36;93.33;;;33.80;;
14326;SDS011;7247;53.330;-1.180;2022-12-18T08:29:02;92.57;;;32.13;;
14326;SDS011;7247;53.330;-1.180;2022-12-18T08:31:29;88.00;;;33.13;;
14326;SDS011;7247;53.330;-1.180;2022-12-18T08:33:56;92.77;;;32.63;;
14326;SDS011;7247;53.330;-1.180;2022-12-18T08:36:22;93.97;;;34.37;;
14326;SDS011;7247;53.330;-1.180;2022-12-18T08:38:49;88.97;;;31.87;;
14326;SDS011;7247;53.330;-1.180;2022-12-18T08:41:17;91.17;;;32.30;;
14326;SDS011;7247;53.330;-1.180;2022-12-18T08:43:44;82.70;;;30.93;;
14326;SDS011;7247;53.330;-1.180;2022-12-18T08:46:31;85.40;;;31.43;;
14326;SDS011;7247;53.330;-1.180;2022-12-18T08:48:58;84.53;;;31.63;;
14326;SDS011;7247;53.330;-1.180;2022-12-18T08:51:24;87.80;;;31.23;;
14326;SDS011;7247;53.330;-1.180;2022-12-18T08:53:51;83.27;;;32.10;;
14326;SDS011;7247;53.330;-1.180;2022-12-18T08:56:18;80.03;;;30.47;;
14326;SDS011;7247;53.330;-1.180;2022-12-18T08:58:45;77.40;;;29.87;;
14326;SDS011;7247;53.330;-1.180;2022-12-18T09:01:12;82.63;;;29.97;;
14326;SDS011;7247;53.330;-1.180;2022-12-18T09:03:38;73.73;;;28.53;;
14326;SDS011;7247;53.330;-1.180;2022-12-18T09:06:05;80.37;;;28.80;;
14326;SDS011;7247;53.330;-1.180;2022-12-18T09:08:32;95.53;;;36.27;;
14326;SDS011;7247;53.330;-1.180;2022-12-18T09:10:58;66.00;;;26.73;;
14326;SDS011;7247;53.330;-1.180;2022-12-18T09:13:26;70.97;;;28.13;;
14326;SDS011;7247;53.330;-1.180;2022-12-18T09:15:53;71.27;;;27.93;;
14326;SDS011;7247;53.330;-1.180;2022-12-18T09:18:20;72.93;;;27.90;;
14326;SDS011;7247;53.330;-1.180;2022-12-18T09:20:47;73.10;;;28.00;;
14326;SDS011;7247;53.330;-1.180;2022-12-18T09:23:15;67.47;;;27.27;;
14326;SDS011;7247;53.330;-1.180;2022-12-18T09:25:41;68.70;;;27.27;;
14326;SDS011;7247;53.330;-1.180;2022-12-18T09:28:09;69.00;;;27.70;;
14326;SDS011;7247;53.330;-1.180;2022-12-18T09:30:38;64.97;;;26.90;;
14326;SDS011;7247;53.330;-1.180;2022-12-18T09:33:04;65.03;;;26.37;;
14326;SDS011;7247;53.330;-1.180;2022-12-18T09:35:31;64.10;;;26.10;;
14326;SDS011;7247;53.330;-1.180;2022-12-18T09:37:57;60.37;;;25.83;;
14326;SDS011;7247;53.330;-1.180;2022-12-18T09:40:25;64.33;;;26.37;;
14326;SDS011;7247;53.330;-1.180;2022-12-18T09:42:52;68.57;;;26.57;;
14326;SDS011;7247;53.330;-1.180;2022-12-18T09:45:20;64.53;;;25.97;;
14326;SDS011;7247;53.330;-1.180;2022-12-18T09:47:48;62.40;;;25.03;;
14326;SDS011;7247;53.330;-1.180;2022-12-18T09:50:17;59.93;;;25.77;;
14326;SDS011;7247;53.330;-1.180;2022-12-18T09:52:49;61.60;;;26.03;;
14326;SDS011;7247;53.330;-1.180;2022-12-18T09:55:22;62.17;;;26.07;;
14326;SDS011;7247;53.330;-1.180;2022-12-18T09:57:51;60.57;;;26.07;;
14326;SDS011;7247;53.330;-1.180;2022-12-18T10:00:19;60.97;;;24.60;;
14326;SDS011;7247;53.330;-1.180;2022-12-18T10:02:46;57.63;;;26.00;;
14326;SDS011;7247;53.330;-1.180;2022-12-18T10:05:15;60.13;;;26.87;;
14326;SDS011;7247;53.330;-1.180;2022-12-18T10:07:48;63.33;;;26.63;;
14326;SDS011;7247;53.330;-1.180;2022-12-18T10:10:19;62.37;;;26.70;;
14326;SDS011;7247;53.330;-1.180;2022-12-18T10:12:50;63.70;;;28.10;;
14326;SDS011;7247;53.330;-1.180;2022-12-18T10:15:21;60.27;;;25.77;;
14326;SDS011;7247;53.330;-1.180;2022-12-18T10:17:51;60.53;;;26.80;;
14326;SDS011;7247;53.330;-1.180;2022-12-18T10:20:24;66.20;;;27.07;;
14326;SDS011;7247;53.330;-1.180;2022-12-18T10:22:54;65.50;;;27.00;;
14326;SDS011;7247;53.330;-1.180;2022-12-18T10:25:24;63.70;;;28.27;;
14326;SDS011;7247;53.330;-1.180;2022-12-18T10:27:52;59.87;;;26.80;;
14326;SDS011;7247;53.330;-1.180;2022-12-18T10:30:20;60.40;;;28.00;;
14326;SDS011;7247;53.330;-1.180;2022-12-18T10:32:46;58.37;;;26.97;;
14326;SDS011;7247;53.330;-1.180;2022-12-18T10:35:15;62.13;;;26.37;;
14326;SDS011;7247;53.330;-1.180;2022-12-18T10:40:47;57.83;;;25.77;;
14326;SDS011;7247;53.330;-1.180;2022-12-18T10:43:15;54.03;;;27.00;;
14326;SDS011;7247;53.330;-1.180;2022-12-18T10:45:42;55.37;;;25.87;;
14326;SDS011;7247;53.330;-1.180;2022-12-18T10:48:17;55.87;;;26.77;;
14326;SDS011;7247;53.330;-1.180;2022-12-18T10:50:46;58.77;;;26.93;;
14326;SDS011;7247;53.330;-1.180;2022-12-18T10:53:14;54.07;;;25.10;;
14326;SDS011;7247;53.330;-1.180;2022-12-18T10:55:45;55.67;;;25.73;;
14326;SDS011;7247;53.330;-1.180;2022-12-18T10:58:23;54.90;;;25.90;;
14326;SDS011;7247;53.330;-1.180;2022-12-18T11:01:01;55.83;;;25.80;;
14326;SDS011;7247;53.330;-1.180;2022-12-18T11:03:29;54.30;;;26.80;;
14326;SDS011;7247;53.330;-1.180;2022-12-18T11:06:00;49.17;;;25.10;;
14326;SDS011;7247;53.330;-1.180;2022-12-18T11:08:27;55.17;;;25.23;;
14326;SDS011;7247;53.330;-1.180;2022-12-18T11:10:55;50.37;;;25.47;;
14326;SDS011;7247;53.330;-1.180;2022-12-18T11:13:22;54.00;;;26.27;;
14326;SDS011;7247;53.330;-1.180;2022-12-18T11:15:49;56.43;;;25.73;;
14326;SDS011;7247;53.330;-1.180;2022-12-18T11:18:16;53.30;;;26.90;;
14326;SDS011;7247;53.330;-1.180;2022-12-18T11:20:44;53.07;;;27.73;;
14326;SDS011;7247;53.330;-1.180;2022-12-18T11:23:16;55.87;;;27.23;;
14326;SDS011;7247;53.330;-1.180;2022-12-18T11:25:49;50.57;;;25.07;;
14326;SDS011;7247;53.330;-1.180;2022-12-18T11:28:26;50.30;;;25.33;;
14326;SDS011;7247;53.330;-1.180;2022-12-18T11:31:08;49.13;;;25.47;;
14326;SDS011;7247;53.330;-1.180;2022-12-18T11:33:35;53.03;;;26.20;;
14326;SDS011;7247;53.330;-1.180;2022-12-18T11:36:03;51.93;;;24.97;;
14326;SDS011;7247;53.330;-1.180;2022-12-18T11:38:31;53.87;;;26.90;;
14326;SDS011;7247;53.330;-1.180;2022-12-18T11:40:58;47.77;;;26.07;;
14326;SDS011;7247;53.330;-1.180;2022-12-18T11:43:28;49.90;;;26.83;;
14326;SDS011;7247;53.330;-1.180;2022-12-18T11:45:56;53.83;;;27.57;;
14326;SDS011;7247;53.330;-1.180;2022-12-18T11:48:25;55.30;;;28.53;;
14326;SDS011;7247;53.330;-1.180;2022-12-18T11:50:53;48.30;;;26.63;;
14326;SDS011;7247;53.330;-1.180;2022-12-18T11:53:21;62.07;;;32.97;;
14326;SDS011;7247;53.330;-1.180;2022-12-18T11:55:50;54.03;;;28.33;;
14326;SDS011;7247;53.330;-1.180;2022-12-18T11:58:19;46.97;;;25.67;;
14326;SDS011;7247;53.330;-1.180;2022-12-18T12:00:53;43.90;;;23.23;;
14326;SDS011;7247;53.330;-1.180;2022-12-18T12:03:24;44.50;;;24.30;;
14326;SDS011;7247;53.330;-1.180;2022-12-18T12:05:56;42.73;;;23.90;;
14326;SDS011;7247;53.330;-1.180;2022-12-18T12:08:26;41.93;;;23.07;;
14326;SDS011;7247;53.330;-1.180;2022-12-18T12:10:57;47.73;;;25.07;;
14326;SDS011;7247;53.330;-1.180;2022-12-18T12:13:29;40.27;;;23.03;;
14326;SDS011;7247;53.330;-1.180;2022-12-18T12:16:02;38.20;;;22.97;;
14326;SDS011;7247;53.330;-1.180;2022-12-18T12:18:32;41.73;;;21.73;;
14326;SDS011;7247;53.330;-1.180;2022-12-18T12:21:02;35.30;;;19.73;;
14326;SDS011;7247;53.330;-1.180;2022-12-18T12:23:33;41.20;;;21.03;;
14326;SDS011;7247;53.330;-1.180;2022-12-18T12:26:03;36.43;;;20.63;;
14326;SDS011;7247;53.330;-1.180;2022-12-18T12:28:36;40.87;;;21.73;;
14326;SDS011;7247;53.330;-1.180;2022-12-18T12:31:11;40.70;;;22.17;;
14326;SDS011;7247;53.330;-1.180;2022-12-18T12:33:40;35.17;;;20.70;;
14326;SDS011;7247;53.330;-1.180;2022-12-18T12:36:13;36.53;;;19.67;;
14326;SDS011;7247;53.330;-1.180;2022-12-18T12:38:44;37.60;;;20.07;;
14326;SDS011;7247;53.330;-1.180;2022-12-18T12:41:16;36.57;;;20.00;;
14326;SDS011;7247;53.330;-1.180;2022-12-18T12:44:01;34.13;;;19.93;;
14326;SDS011;7247;53.330;-1.180;2022-12-18T12:46:31;37.57;;;20.43;;
14326;SDS011;7247;53.330;-1.180;2022-12-18T12:48:59;32.90;;;19.67;;
14326;SDS011;7247;53.330;-1.180;2022-12-18T12:51:26;37.83;;;19.60;;
14326;SDS011;7247;53.330;-1.180;2022-12-18T12:53:54;35.53;;;19.97;;
14326;SDS011;7247;53.330;-1.180;2022-12-18T12:56:21;35.90;;;20.93;;
14326;SDS011;7247;53.330;-1.180;2022-12-18T12:58:58;33.60;;;20.40;;
14326;SDS011;7247;53.330;-1.180;2022-12-18T13:01:28;37.03;;;20.30;;
14326;SDS011;7247;53.330;-1.180;2022-12-18T13:04:05;38.10;;;20.20;;
14326;SDS011;7247;53.330;-1.180;2022-12-18T13:06:35;36.23;;;19.83;;
14326;SDS011;7247;53.330;-1.180;2022-12-18T13:09:02;37.47;;;20.53;;
14326;SDS011;7247;53.330;-1.180;2022-12-18T13:11:34;35.30;;;19.47;;
14326;SDS011;7247;53.330;-1.180;2022-12-18T13:14:22;40.17;;;21.03;;
14326;SDS011;7247;53.330;-1.180;2022-12-18T13:16:50;37.53;;;20.90;;
14326;SDS011;7247;53.330;-1.180;2022-12-18T13:19:22;37.17;;;19.20;;
14326;SDS011;7247;53.330;-1.180;2022-12-18T13:21:53;38.57;;;20.13;;
14326;SDS011;7247;53.330;-1.180;2022-12-18T13:24:23;35.23;;;19.57;;
14326;SDS011;7247;53.330;-1.180;2022-12-18T13:26:50;35.33;;;21.03;;
14326;SDS011;7247;53.330;-1.180;2022-12-18T13:29:40;35.10;;;20.77;;
14326;SDS011;7247;53.330;-1.180;2022-12-18T13:37:43;40.77;;;21.50;;
14326;SDS011;7247;53.330;-1.180;2022-12-18T13:42:57;36.00;;;20.00;;
14326;SDS011;7247;53.330;-1.180;2022-12-18T13:45:40;34.40;;;20.07;;
14326;SDS011;7247;53.330;-1.180;2022-12-18T13:48:14;32.40;;;19.63;;
14326;SDS011;7247;53.330;-1.180;2022-12-18T13:50:41;36.87;;;20.57;;
14326;SDS011;7247;53.330;-1.180;2022-12-18T13:53:12;38.57;;;21.17;;
14326;SDS011;7247;53.330;-1.180;2022-12-18T13:55:46;36.93;;;20.57;;
14326;SDS011;7247;53.330;-1.180;2022-12-18T13:58:13;39.57;;;21.30;;
14326;SDS011;7247;53.330;-1.180;2022-12-18T14:00:40;39.90;;;21.10;;
14326;SDS011;7247;53.330;-1.180;2022-12-18T14:03:15;38.73;;;21.30;;
14326;SDS011;7247;53.330;-1.180;2022-12-18T14:05:43;44.00;;;22.43;;
14326;SDS011;7247;53.330;-1.180;2022-12-18T14:08:11;39.43;;;19.60;;
14326;SDS011;7247;53.330;-1.180;2022-12-18T14:10:41;39.67;;;21.60;;
14326;SDS011;7247;53.330;-1.180;2022-12-18T14:13:08;38.10;;;20.80;;
14326;SDS011;7247;53.330;-1.180;2022-12-18T14:15:36;38.00;;;21.47;;
14326;SDS011;7247;53.330;-1.180;2022-12-18T14:18:09;40.23;;;22.90;;
14326;SDS011;7247;53.330;-1.180;2022-12-18T14:20:41;37.30;;;20.93;;
14326;SDS011;7247;53.330;-1.180;2022-12-18T14:25:51;38.47;;;21.43;;
14326;SDS011;7247;53.330;-1.180;2022-12-18T14:28:18;38.37;;;21.63;;
14326;SDS011;7247;53.330;-1.180;2022-12-18T14:30:44;39.73;;;21.47;;
14326;SDS011;7247;53.330;-1.180;2022-12-18T14:33:11;38.47;;;22.00;;
14326;SDS011;7247;53.330;-1.180;2022-12-18T14:35:39;39.60;;;22.63;;
14326;SDS011;7247;53.330;-1.180;2022-12-18T14:40:59;39.60;;;22.27;;
14326;SDS011;7247;53.330;-1.180;2022-12-18T14:43:26;36.33;;;19.93;;
14326;SDS011;7247;53.330;-1.180;2022-12-18T14:45:53;45.23;;;24.80;;
14326;SDS011;7247;53.330;-1.180;2022-12-18T14:48:20;38.90;;;21.87;;